sensor_id;sensor_type;location;lat;lon;timestamp;P1;durP1;ratioP1;P2;durP2;ratioP2
43933;SDS011;59081;42.706;23.306;2022-09-12T00:01:46;8.43;;;6.38;;
43933;SDS011;59081;42.706;23.306;2022-09-12T00:04:11;7.75;;;6.70;;
43933;SDS011;59081;42.706;23.306;2022-09-12T00:06:37;9.55;;;6.32;;
43933;SDS011;59081;42.706;23.306;2022-09-12T00:09:07;7.25;;;6.55;;
43933;SDS011;59081;42.706;23.306;2022-09-12T00:11:35;8.23;;;6.22;;
43933;SDS011;59081;42.706;23.306;2022-09-12T00:14:02;7.28;;;6.28;;
43933;SDS011;59081;42.706;23.306;2022-09-12T00:16:29;5.72;;;4.85;;
43933;SDS011;59081;42.706;23.306;2022-09-12T00:18:56;10.90;;;7.38;;
43933;SDS011;59081;42.706;23.306;2022-09-12T00:21:22;8.48;;;7.05;;
43933;SDS011;59081;42.706;23.306;2022-09-12T00:23:48;8.82;;;7.93;;
43933;SDS011;59081;42.706;23.306;2022-09-12T00:26:14;7.55;;;6.72;;
43933;SDS011;59081;42.706;23.306;2022-09-12T00:28:41;7.90;;;6.25;;
43933;SDS011;59081;42.706;23.306;2022-09-12T00:31:12;7.28;;;5.85;;
43933;SDS011;59081;42.706;23.306;2022-09-12T00:33:40;6.13;;;5.28;;
43933;SDS011;59081;42.706;23.306;2022-09-12T00:36:07;7.25;;;5.97;;
43933;SDS011;59081;42.706;23.306;2022-09-12T00:38:35;7.82;;;5.38;;
43933;SDS011;59081;42.706;23.306;2022-09-12T00:41:05;5.25;;;4.50;;
43933;SDS011;59081;42.706;23.306;2022-09-12T00:43:38;6.47;;;5.85;;
43933;SDS011;59081;42.706;23.306;2022-09-12T00:49:00;7.72;;;5.70;;
43933;SDS011;59081;42.706;23.306;2022-09-12T00:51:37;8.15;;;5.60;;
43933;SDS011;59081;42.706;23.306;2022-09-12T00:54:07;9.40;;;5.85;;
43933;SDS011;59081;42.706;23.306;2022-09-12T00:56:36;8.95;;;5.75;;
43933;SDS011;59081;42.706;23.306;2022-09-12T00:59:06;7.43;;;5.90;;
43933;SDS011;59081;42.706;23.306;2022-09-12T01:01:36;9.57;;;5.63;;
43933;SDS011;59081;42.706;23.306;2022-09-12T01:04:04;9.27;;;6.10;;
43933;SDS011;59081;42.706;23.306;2022-09-12T01:06:37;6.00;;;5.32;;
43933;SDS011;59081;42.706;23.306;2022-09-12T01:09:05;7.35;;;5.78;;
43933;SDS011;59081;42.706;23.306;2022-09-12T01:11:35;6.80;;;5.82;;
43933;SDS011;59081;42.706;23.306;2022-09-12T01:14:03;5.90;;;5.15;;
43933;SDS011;59081;42.706;23.306;2022-09-12T01:16:28;7.05;;;5.65;;
43933;SDS011;59081;42.706;23.306;2022-09-12T01:18:57;6.35;;;5.72;;
43933;SDS011;59081;42.706;23.306;2022-09-12T01:33:35;5.20;;;4.70;;
43933;SDS011;59081;42.706;23.306;2022-09-12T01:39:02;5.35;;;4.85;;
43933;SDS011;59081;42.706;23.306;2022-09-12T01:51:47;6.60;;;4.97;;
43933;SDS011;59081;42.706;23.306;2022-09-12T01:54:40;5.43;;;4.80;;
43933;SDS011;59081;42.706;23.306;2022-09-12T01:57:13;7.05;;;4.53;;
43933;SDS011;59081;42.706;23.306;2022-09-12T01:59:49;8.45;;;4.85;;
43933;SDS011;59081;42.706;23.306;2022-09-12T02:02:27;7.10;;;4.35;;
43933;SDS011;59081;42.706;23.306;2022-09-12T02:05:03;6.28;;;4.18;;
43933;SDS011;59081;42.706;23.306;2022-09-12T02:07:41;4.75;;;4.07;;
43933;SDS011;59081;42.706;23.306;2022-09-12T02:10:29;5.93;;;5.05;;
43933;SDS011;59081;42.706;23.306;2022-09-12T02:15:36;5.50;;;4.90;;
43933;SDS011;59081;42.706;23.306;2022-09-12T02:18:07;5.15;;;4.45;;
43933;SDS011;59081;42.706;23.306;2022-09-12T02:20:40;6.30;;;4.93;;
43933;SDS011;59081;42.706;23.306;2022-09-12T02:23:08;5.43;;;4.90;;
43933;SDS011;59081;42.706;23.306;2022-09-12T02:25:39;7.40;;;5.53;;
43933;SDS011;59081;42.706;23.306;2022-09-12T02:28:18;5.53;;;4.95;;
43933;SDS011;59081;42.706;23.306;2022-09-12T02:33:43;5.15;;;4.45;;
43933;SDS011;59081;42.706;23.306;2022-09-12T02:36:31;7.95;;;4.65;;
43933;SDS011;59081;42.706;23.306;2022-09-12T02:39:04;7.28;;;5.32;;
43933;SDS011;59081;42.706;23.306;2022-09-12T02:41:29;5.95;;;4.50;;
43933;SDS011;59081;42.706;23.306;2022-09-12T02:43:55;5.85;;;4.80;;
43933;SDS011;59081;42.706;23.306;2022-09-12T02:46:27;6.93;;;4.40;;
43933;SDS011;59081;42.706;23.306;2022-09-12T02:48:59;5.05;;;4.45;;
43933;SDS011;59081;42.706;23.306;2022-09-12T02:51:25;4.78;;;4.00;;
43933;SDS011;59081;42.706;23.306;2022-09-12T02:53:51;5.72;;;4.10;;
43933;SDS011;59081;42.706;23.306;2022-09-12T02:56:21;4.97;;;4.45;;
43933;SDS011;59081;42.706;23.306;2022-09-12T02:58:50;4.55;;;4.15;;
43933;SDS011;59081;42.706;23.306;2022-09-12T03:06:29;4.63;;;3.95;;
43933;SDS011;59081;42.706;23.306;2022-09-12T03:09:05;4.63;;;4.13;;
43933;SDS011;59081;42.706;23.306;2022-09-12T03:19:58;7.38;;;4.63;;
43933;SDS011;59081;42.706;23.306;2022-09-12T03:22:57;5.70;;;4.47;;
43933;SDS011;59081;42.706;23.306;2022-09-12T03:25:53;6.45;;;4.95;;
43933;SDS011;59081;42.706;23.306;2022-09-12T03:28:25;7.45;;;4.88;;
43933;SDS011;59081;42.706;23.306;2022-09-12T03:30:51;6.25;;;5.32;;
43933;SDS011;59081;42.706;23.306;2022-09-12T03:33:21;8.93;;;5.35;;
43933;SDS011;59081;42.706;23.306;2022-09-12T03:35:48;5.30;;;4.57;;
43933;SDS011;59081;42.706;23.306;2022-09-12T03:38:15;6.25;;;4.50;;
43933;SDS011;59081;42.706;23.306;2022-09-12T03:40:41;6.18;;;4.53;;
43933;SDS011;59081;42.706;23.306;2022-09-12T03:43:07;6.55;;;5.68;;
43933;SDS011;59081;42.706;23.306;2022-09-12T03:45:34;9.63;;;4.78;;
43933;SDS011;59081;42.706;23.306;2022-09-12T03:48:00;7.43;;;4.35;;
43933;SDS011;59081;42.706;23.306;2022-09-12T03:50:26;9.85;;;5.28;;
43933;SDS011;59081;42.706;23.306;2022-09-12T03:52:52;6.88;;;5.70;;
43933;SDS011;59081;42.706;23.306;2022-09-12T03:55:17;6.88;;;5.07;;
43933;SDS011;59081;42.706;23.306;2022-09-12T03:57:43;10.40;;;5.93;;
43933;SDS011;59081;42.706;23.306;2022-09-12T04:00:09;6.70;;;5.82;;
43933;SDS011;59081;42.706;23.306;2022-09-12T04:02:35;6.65;;;5.22;;
43933;SDS011;59081;42.706;23.306;2022-09-12T04:05:01;9.05;;;5.75;;
43933;SDS011;59081;42.706;23.306;2022-09-12T04:07:27;8.35;;;5.82;;
43933;SDS011;59081;42.706;23.306;2022-09-12T04:09:53;11.38;;;5.20;;
43933;SDS011;59081;42.706;23.306;2022-09-12T04:12:19;7.00;;;5.80;;
43933;SDS011;59081;42.706;23.306;2022-09-12T04:14:45;10.48;;;6.38;;
43933;SDS011;59081;42.706;23.306;2022-09-12T04:17:10;6.05;;;5.13;;
43933;SDS011;59081;42.706;23.306;2022-09-12T04:19:36;7.80;;;5.18;;
43933;SDS011;59081;42.706;23.306;2022-09-12T04:22:02;6.88;;;5.05;;
43933;SDS011;59081;42.706;23.306;2022-09-12T04:24:28;10.02;;;5.25;;
43933;SDS011;59081;42.706;23.306;2022-09-12T04:26:54;8.23;;;6.03;;
43933;SDS011;59081;42.706;23.306;2022-09-12T04:29:20;6.53;;;5.80;;
43933;SDS011;59081;42.706;23.306;2022-09-12T04:31:45;7.47;;;5.53;;
43933;SDS011;59081;42.706;23.306;2022-09-12T04:34:11;22.02;;;5.97;;
43933;SDS011;59081;42.706;23.306;2022-09-12T04:36:36;7.35;;;5.07;;
43933;SDS011;59081;42.706;23.306;2022-09-12T04:39:02;5.63;;;5.05;;
43933;SDS011;59081;42.706;23.306;2022-09-12T04:41:30;6.57;;;4.18;;
43933;SDS011;59081;42.706;23.306;2022-09-12T04:43:58;6.35;;;4.15;;
43933;SDS011;59081;42.706;23.306;2022-09-12T04:46:29;9.85;;;4.78;;
43933;SDS011;59081;42.706;23.306;2022-09-12T04:48:56;4.20;;;3.60;;
43933;SDS011;59081;42.706;23.306;2022-09-12T04:51:26;6.47;;;3.95;;
43933;SDS011;59081;42.706;23.306;2022-09-12T04:53:54;10.02;;;4.25;;
43933;SDS011;59081;42.706;23.306;2022-09-12T04:56:24;20.15;;;4.82;;
43933;SDS011;59081;42.706;23.306;2022-09-12T04:58:51;7.07;;;3.85;;
43933;SDS011;59081;42.706;23.306;2022-09-12T05:01:20;4.80;;;3.83;;
43933;SDS011;59081;42.706;23.306;2022-09-12T05:03:47;11.10;;;4.38;;
43933;SDS011;59081;42.706;23.306;2022-09-12T05:06:18;6.03;;;3.78;;
43933;SDS011;59081;42.706;23.306;2022-09-12T05:08:48;8.43;;;4.30;;
43933;SDS011;59081;42.706;23.306;2022-09-12T05:11:21;6.82;;;4.35;;
43933;SDS011;59081;42.706;23.306;2022-09-12T05:13:48;9.80;;;4.30;;
43933;SDS011;59081;42.706;23.306;2022-09-12T05:16:15;7.20;;;3.95;;
43933;SDS011;59081;42.706;23.306;2022-09-12T05:18:41;8.65;;;4.22;;
43933;SDS011;59081;42.706;23.306;2022-09-12T05:21:11;8.68;;;3.70;;
43933;SDS011;59081;42.706;23.306;2022-09-12T05:23:39;6.57;;;4.28;;
43933;SDS011;59081;42.706;23.306;2022-09-12T05:26:05;8.55;;;4.65;;
43933;SDS011;59081;42.706;23.306;2022-09-12T05:28:35;10.00;;;4.53;;
43933;SDS011;59081;42.706;23.306;2022-09-12T05:33:44;8.68;;;4.82;;
43933;SDS011;59081;42.706;23.306;2022-09-12T05:36:11;6.43;;;5.05;;
43933;SDS011;59081;42.706;23.306;2022-09-12T05:38:39;10.93;;;4.30;;
43933;SDS011;59081;42.706;23.306;2022-09-12T05:41:05;6.30;;;5.15;;
43933;SDS011;59081;42.706;23.306;2022-09-12T05:43:34;6.85;;;5.05;;
43933;SDS011;59081;42.706;23.306;2022-09-12T05:46:05;9.40;;;5.55;;
43933;SDS011;59081;42.706;23.306;2022-09-12T05:48:36;10.60;;;5.90;;
43933;SDS011;59081;42.706;23.306;2022-09-12T05:51:04;8.65;;;5.35;;
43933;SDS011;59081;42.706;23.306;2022-09-12T05:53:33;11.48;;;4.25;;
43933;SDS011;59081;42.706;23.306;2022-09-12T05:58:35;4.93;;;3.92;;
43933;SDS011;59081;42.706;23.306;2022-09-12T06:01:03;5.53;;;4.03;;
43933;SDS011;59081;42.706;23.306;2022-09-12T06:03:34;7.28;;;4.53;;
43933;SDS011;59081;42.706;23.306;2022-09-12T06:06:01;6.43;;;4.28;;
43933;SDS011;59081;42.706;23.306;2022-09-12T06:08:29;7.57;;;4.47;;
43933;SDS011;59081;42.706;23.306;2022-09-12T06:10:59;8.10;;;4.45;;
43933;SDS011;59081;42.706;23.306;2022-09-12T06:13:26;7.82;;;4.75;;
43933;SDS011;59081;42.706;23.306;2022-09-12T06:15:52;5.68;;;4.95;;
43933;SDS011;59081;42.706;23.306;2022-09-12T06:18:18;14.43;;;5.95;;
43933;SDS011;59081;42.706;23.306;2022-09-12T06:20:45;8.88;;;4.95;;
43933;SDS011;59081;42.706;23.306;2022-09-12T06:23:10;7.75;;;5.13;;
43933;SDS011;59081;42.706;23.306;2022-09-12T06:25:36;8.77;;;4.97;;
43933;SDS011;59081;42.706;23.306;2022-09-12T06:28:02;7.80;;;4.50;;
43933;SDS011;59081;42.706;23.306;2022-09-12T06:30:28;6.57;;;4.25;;
43933;SDS011;59081;42.706;23.306;2022-09-12T06:32:54;5.35;;;4.53;;
43933;SDS011;59081;42.706;23.306;2022-09-12T06:35:21;8.88;;;4.93;;
43933;SDS011;59081;42.706;23.306;2022-09-12T06:37:47;5.45;;;3.95;;
43933;SDS011;59081;42.706;23.306;2022-09-12T06:40:13;7.38;;;4.50;;
43933;SDS011;59081;42.706;23.306;2022-09-12T06:42:38;5.20;;;4.68;;
43933;SDS011;59081;42.706;23.306;2022-09-12T06:45:04;4.90;;;3.42;;
43933;SDS011;59081;42.706;23.306;2022-09-12T06:47:30;6.20;;;4.60;;
43933;SDS011;59081;42.706;23.306;2022-09-12T06:49:56;6.82;;;5.05;;
43933;SDS011;59081;42.706;23.306;2022-09-12T06:52:21;8.90;;;5.50;;
43933;SDS011;59081;42.706;23.306;2022-09-12T06:54:47;6.85;;;4.85;;
43933;SDS011;59081;42.706;23.306;2022-09-12T06:57:12;6.30;;;4.75;;
43933;SDS011;59081;42.706;23.306;2022-09-12T06:59:37;6.15;;;4.45;;
43933;SDS011;59081;42.706;23.306;2022-09-12T07:02:03;5.53;;;4.55;;
43933;SDS011;59081;42.706;23.306;2022-09-12T07:04:28;5.93;;;4.32;;
43933;SDS011;59081;42.706;23.306;2022-09-12T07:06:54;7.22;;;5.00;;
43933;SDS011;59081;42.706;23.306;2022-09-12T07:09:19;5.10;;;4.57;;
43933;SDS011;59081;42.706;23.306;2022-09-12T07:11:45;6.03;;;4.03;;
43933;SDS011;59081;42.706;23.306;2022-09-12T07:14:11;5.35;;;4.43;;
43933;SDS011;59081;42.706;23.306;2022-09-12T07:16:38;7.40;;;5.13;;
43933;SDS011;59081;42.706;23.306;2022-09-12T07:19:04;6.93;;;5.30;;
43933;SDS011;59081;42.706;23.306;2022-09-12T07:21:31;6.63;;;4.05;;
43933;SDS011;59081;42.706;23.306;2022-09-12T07:23:57;7.93;;;5.07;;
43933;SDS011;59081;42.706;23.306;2022-09-12T07:26:23;6.07;;;4.35;;
43933;SDS011;59081;42.706;23.306;2022-09-12T07:28:51;5.15;;;4.15;;
43933;SDS011;59081;42.706;23.306;2022-09-12T07:31:18;7.72;;;4.07;;
43933;SDS011;59081;42.706;23.306;2022-09-12T07:33:45;8.68;;;5.40;;
43933;SDS011;59081;42.706;23.306;2022-09-12T07:36:12;6.15;;;4.90;;
43933;SDS011;59081;42.706;23.306;2022-09-12T07:38:39;9.50;;;4.50;;
43933;SDS011;59081;42.706;23.306;2022-09-12T07:41:16;5.07;;;4.45;;
43933;SDS011;59081;42.706;23.306;2022-09-12T07:43:44;5.03;;;4.50;;
43933;SDS011;59081;42.706;23.306;2022-09-12T07:46:11;6.25;;;4.57;;
43933;SDS011;59081;42.706;23.306;2022-09-12T07:48:37;5.22;;;4.72;;
43933;SDS011;59081;42.706;23.306;2022-09-12T07:51:06;5.70;;;4.85;;
43933;SDS011;59081;42.706;23.306;2022-09-12T07:53:34;5.32;;;3.97;;
43933;SDS011;59081;42.706;23.306;2022-09-12T07:56:04;5.20;;;4.68;;
43933;SDS011;59081;42.706;23.306;2022-09-12T07:58:32;5.18;;;4.60;;
43933;SDS011;59081;42.706;23.306;2022-09-12T08:01:06;4.35;;;3.95;;
43933;SDS011;59081;42.706;23.306;2022-09-12T08:03:33;6.80;;;3.08;;
43933;SDS011;59081;42.706;23.306;2022-09-12T08:06:09;4.80;;;4.30;;
43933;SDS011;59081;42.706;23.306;2022-09-12T08:08:36;4.32;;;3.92;;
43933;SDS011;59081;42.706;23.306;2022-09-12T08:11:04;3.83;;;3.33;;
43933;SDS011;59081;42.706;23.306;2022-09-12T08:13:32;4.70;;;3.97;;
43933;SDS011;59081;42.706;23.306;2022-09-12T08:15:59;4.00;;;3.60;;
43933;SDS011;59081;42.706;23.306;2022-09-12T08:18:26;4.15;;;3.75;;
43933;SDS011;59081;42.706;23.306;2022-09-12T08:20:58;4.55;;;3.83;;
43933;SDS011;59081;42.706;23.306;2022-09-12T08:23:25;6.65;;;3.60;;
43933;SDS011;59081;42.706;23.306;2022-09-12T08:25:56;5.88;;;3.22;;
43933;SDS011;59081;42.706;23.306;2022-09-12T08:28:23;6.40;;;3.65;;
43933;SDS011;59081;42.706;23.306;2022-09-12T08:30:50;7.28;;;3.75;;
43933;SDS011;59081;42.706;23.306;2022-09-12T08:33:17;4.20;;;3.80;;
43933;SDS011;59081;42.706;23.306;2022-09-12T08:35:46;5.57;;;3.45;;
43933;SDS011;59081;42.706;23.306;2022-09-12T08:38:12;4.13;;;3.42;;
43933;SDS011;59081;42.706;23.306;2022-09-12T08:46:05;4.95;;;3.90;;
43933;SDS011;59081;42.706;23.306;2022-09-12T08:48:37;6.55;;;3.83;;
43933;SDS011;59081;42.706;23.306;2022-09-12T08:51:04;5.10;;;3.22;;
43933;SDS011;59081;42.706;23.306;2022-09-12T08:53:33;6.45;;;4.53;;
43933;SDS011;59081;42.706;23.306;2022-09-12T08:56:01;4.57;;;3.95;;
43933;SDS011;59081;42.706;23.306;2022-09-12T08:58:38;4.68;;;3.67;;
43933;SDS011;59081;42.706;23.306;2022-09-12T09:10:02;4.15;;;3.75;;
43933;SDS011;59081;42.706;23.306;2022-09-12T09:18:20;4.30;;;3.50;;
43933;SDS011;59081;42.706;23.306;2022-09-12T09:23:48;7.75;;;4.47;;
43933;SDS011;59081;42.706;23.306;2022-09-12T09:28:58;4.32;;;3.92;;
43933;SDS011;59081;42.706;23.306;2022-09-12T09:31:32;4.50;;;3.67;;
43933;SDS011;59081;42.706;23.306;2022-09-12T09:34:04;3.90;;;3.50;;
43933;SDS011;59081;42.706;23.306;2022-09-12T09:39:05;9.90;;;3.65;;
43933;SDS011;59081;42.706;23.306;2022-09-12T09:41:48;4.75;;;4.10;;
43933;SDS011;59081;42.706;23.306;2022-09-12T09:44:16;7.43;;;3.75;;
43933;SDS011;59081;42.706;23.306;2022-09-12T09:46:42;3.67;;;3.05;;
43933;SDS011;59081;42.706;23.306;2022-09-12T09:49:08;4.03;;;3.03;;
43933;SDS011;59081;42.706;23.306;2022-09-12T09:51:39;3.33;;;3.03;;
43933;SDS011;59081;42.706;23.306;2022-09-12T09:54:19;3.92;;;3.53;;
43933;SDS011;59081;42.706;23.306;2022-09-12T09:56:50;5.55;;;3.53;;
43933;SDS011;59081;42.706;23.306;2022-09-12T09:59:24;3.40;;;3.10;;
43933;SDS011;59081;42.706;23.306;2022-09-12T10:01:55;4.03;;;3.10;;
43933;SDS011;59081;42.706;23.306;2022-09-12T10:04:31;3.45;;;3.15;;
43933;SDS011;59081;42.706;23.306;2022-09-12T10:07:01;3.67;;;2.95;;
43933;SDS011;59081;42.706;23.306;2022-09-12T10:09:29;3.22;;;2.92;;
43933;SDS011;59081;42.706;23.306;2022-09-12T10:12:00;3.63;;;3.10;;
43933;SDS011;59081;42.706;23.306;2022-09-12T10:14:44;4.60;;;3.50;;
43933;SDS011;59081;42.706;23.306;2022-09-12T10:19:47;6.05;;;5.15;;
43933;SDS011;59081;42.706;23.306;2022-09-12T10:22:20;7.05;;;4.53;;
43933;SDS011;59081;42.706;23.306;2022-09-12T10:24:58;5.57;;;3.80;;
43933;SDS011;59081;42.706;23.306;2022-09-12T10:27:27;4.55;;;3.65;;
43933;SDS011;59081;42.706;23.306;2022-09-12T10:30:06;5.35;;;4.85;;
43933;SDS011;59081;42.706;23.306;2022-09-12T10:32:44;7.00;;;4.68;;
43933;SDS011;59081;42.706;23.306;2022-09-12T10:35:41;4.53;;;4.05;;
43933;SDS011;59081;42.706;23.306;2022-09-12T10:38:16;7.13;;;6.25;;
43933;SDS011;59081;42.706;23.306;2022-09-12T10:40:56;6.10;;;4.90;;
43933;SDS011;59081;42.706;23.306;2022-09-12T10:43:29;4.00;;;3.60;;
43933;SDS011;59081;42.706;23.306;2022-09-12T10:45:58;5.43;;;4.65;;
43933;SDS011;59081;42.706;23.306;2022-09-12T10:48:47;4.72;;;4.20;;
43933;SDS011;59081;42.706;23.306;2022-09-12T10:53:59;4.40;;;4.00;;
43933;SDS011;59081;42.706;23.306;2022-09-12T11:02:14;4.28;;;3.88;;
43933;SDS011;59081;42.706;23.306;2022-09-12T11:05:16;5.55;;;4.15;;
43933;SDS011;59081;42.706;23.306;2022-09-12T11:10:20;5.22;;;4.72;;
43933;SDS011;59081;42.706;23.306;2022-09-12T11:29:16;4.82;;;4.32;;
43933;SDS011;59081;42.706;23.306;2022-09-12T11:34:31;7.10;;;5.03;;
43933;SDS011;59081;42.706;23.306;2022-09-12T11:39:53;5.15;;;4.22;;
43933;SDS011;59081;42.706;23.306;2022-09-12T11:42:27;4.15;;;3.40;;
43933;SDS011;59081;42.706;23.306;2022-09-12T11:45:00;4.70;;;2.95;;
43933;SDS011;59081;42.706;23.306;2022-09-12T11:47:36;3.95;;;3.55;;
43933;SDS011;59081;42.706;23.306;2022-09-12T11:50:07;5.82;;;4.13;;
43933;SDS011;59081;42.706;23.306;2022-09-12T11:53:08;3.17;;;2.88;;
43933;SDS011;59081;42.706;23.306;2022-09-12T11:55:46;3.03;;;2.63;;
43933;SDS011;59081;42.706;23.306;2022-09-12T11:58:30;3.30;;;3.00;;
43933;SDS011;59081;42.706;23.306;2022-09-12T12:01:17;3.78;;;2.67;;
43933;SDS011;59081;42.706;23.306;2022-09-12T12:03:45;4.40;;;3.50;;
43933;SDS011;59081;42.706;23.306;2022-09-12T12:06:22;3.05;;;2.78;;
43933;SDS011;59081;42.706;23.306;2022-09-12T12:08:52;3.45;;;3.15;;
43933;SDS011;59081;42.706;23.306;2022-09-12T12:13:56;3.65;;;3.00;;
43933;SDS011;59081;42.706;23.306;2022-09-12T12:16:30;2.60;;;2.40;;
43933;SDS011;59081;42.706;23.306;2022-09-12T12:18:59;2.60;;;1.95;;
43933;SDS011;59081;42.706;23.306;2022-09-12T12:21:31;2.55;;;1.98;;
43933;SDS011;59081;42.706;23.306;2022-09-12T12:29:07;4.20;;;2.58;;
43933;SDS011;59081;42.706;23.306;2022-09-12T12:36:56;3.85;;;2.70;;
43933;SDS011;59081;42.706;23.306;2022-09-12T12:41:58;2.72;;;1.77;;
43933;SDS011;59081;42.706;23.306;2022-09-12T12:47:18;2.78;;;2.58;;
43933;SDS011;59081;42.706;23.306;2022-09-12T12:50:19;4.70;;;2.83;;
43933;SDS011;59081;42.706;23.306;2022-09-12T12:55:24;3.72;;;3.10;;
43933;SDS011;59081;42.706;23.306;2022-09-12T12:57:55;4.53;;;2.70;;
43933;SDS011;59081;42.706;23.306;2022-09-12T13:00:36;3.58;;;2.50;;
43933;SDS011;59081;42.706;23.306;2022-09-12T13:08:22;2.58;;;2.38;;
43933;SDS011;59081;42.706;23.306;2022-09-12T13:10:55;3.20;;;2.88;;
43933;SDS011;59081;42.706;23.306;2022-09-12T13:13:49;3.85;;;3.40;;
43933;SDS011;59081;42.706;23.306;2022-09-12T13:16:37;4.10;;;3.50;;
43933;SDS011;59081;42.706;23.306;2022-09-12T13:19:10;4.28;;;3.88;;
43933;SDS011;59081;42.706;23.306;2022-09-12T13:21:38;4.05;;;3.75;;
43933;SDS011;59081;42.706;23.306;2022-09-12T13:24:25;5.03;;;3.63;;
43933;SDS011;59081;42.706;23.306;2022-09-12T13:26:50;3.60;;;3.30;;
43933;SDS011;59081;42.706;23.306;2022-09-12T13:29:18;3.58;;;3.28;;
43933;SDS011;59081;42.706;23.306;2022-09-12T13:31:47;4.50;;;3.20;;
43933;SDS011;59081;42.706;23.306;2022-09-12T13:34:19;5.82;;;4.07;;
43933;SDS011;59081;42.706;23.306;2022-09-12T13:36:53;3.47;;;3.17;;
43933;SDS011;59081;42.706;23.306;2022-09-12T13:39:40;4.05;;;3.65;;
43933;SDS011;59081;42.706;23.306;2022-09-12T13:42:35;3.95;;;3.03;;
43933;SDS011;59081;42.706;23.306;2022-09-12T13:45:11;3.63;;;3.10;;
43933;SDS011;59081;42.706;23.306;2022-09-12T13:47:55;3.40;;;3.10;;
43933;SDS011;59081;42.706;23.306;2022-09-12T13:50:29;4.45;;;3.35;;
43933;SDS011;59081;42.706;23.306;2022-09-12T13:52:58;6.57;;;4.03;;
43933;SDS011;59081;42.706;23.306;2022-09-12T13:57:58;6.70;;;3.67;;
43933;SDS011;59081;42.706;23.306;2022-09-12T14:00:28;6.15;;;4.53;;
43933;SDS011;59081;42.706;23.306;2022-09-12T14:02:56;4.65;;;4.18;;
43933;SDS011;59081;42.706;23.306;2022-09-12T14:05:41;7.13;;;4.47;;
43933;SDS011;59081;42.706;23.306;2022-09-12T14:08:10;4.88;;;4.35;;
43933;SDS011;59081;42.706;23.306;2022-09-12T14:10:38;5.68;;;5.07;;
43933;SDS011;59081;42.706;23.306;2022-09-12T14:13:11;5.65;;;3.97;;
43933;SDS011;59081;42.706;23.306;2022-09-12T14:15:49;5.88;;;4.57;;
43933;SDS011;59081;42.706;23.306;2022-09-12T14:18:24;4.38;;;4.00;;
43933;SDS011;59081;42.706;23.306;2022-09-12T14:20:50;4.43;;;3.80;;
43933;SDS011;59081;42.706;23.306;2022-09-12T14:23:24;4.55;;;4.15;;
43933;SDS011;59081;42.706;23.306;2022-09-12T14:25:53;4.53;;;4.18;;
43933;SDS011;59081;42.706;23.306;2022-09-12T14:28:20;4.68;;;4.28;;
43933;SDS011;59081;42.706;23.306;2022-09-12T14:31:03;4.72;;;4.30;;
43933;SDS011;59081;42.706;23.306;2022-09-12T14:33:44;4.93;;;4.40;;
43933;SDS011;59081;42.706;23.306;2022-09-12T14:36:32;4.03;;;3.72;;
43933;SDS011;59081;42.706;23.306;2022-09-12T14:39:06;6.07;;;4.40;;
43933;SDS011;59081;42.706;23.306;2022-09-12T14:41:43;7.22;;;4.93;;
43933;SDS011;59081;42.706;23.306;2022-09-12T14:44:17;4.10;;;3.70;;
43933;SDS011;59081;42.706;23.306;2022-09-12T14:46:47;4.63;;;4.18;;
43933;SDS011;59081;42.706;23.306;2022-09-12T14:56:55;4.40;;;4.00;;
43933;SDS011;59081;42.706;23.306;2022-09-12T15:04:41;4.80;;;4.40;;
43933;SDS011;59081;42.706;23.306;2022-09-12T15:09:38;5.13;;;4.63;;
43933;SDS011;59081;42.706;23.306;2022-09-12T15:12:04;5.20;;;4.70;;
43933;SDS011;59081;42.706;23.306;2022-09-12T15:14:29;6.50;;;5.70;;
43933;SDS011;59081;42.706;23.306;2022-09-12T15:16:55;5.05;;;4.10;;
43933;SDS011;59081;42.706;23.306;2022-09-12T15:19:20;6.55;;;4.95;;
43933;SDS011;59081;42.706;23.306;2022-09-12T15:21:46;4.68;;;4.28;;
43933;SDS011;59081;42.706;23.306;2022-09-12T15:24:11;4.18;;;3.78;;
43933;SDS011;59081;42.706;23.306;2022-09-12T15:26:36;4.13;;;3.65;;
43933;SDS011;59081;42.706;23.306;2022-09-12T15:29:02;7.70;;;4.65;;
43933;SDS011;59081;42.706;23.306;2022-09-12T15:31:29;4.60;;;4.20;;
43933;SDS011;59081;42.706;23.306;2022-09-12T15:33:56;6.57;;;4.57;;
43933;SDS011;59081;42.706;23.306;2022-09-12T15:36:23;5.80;;;4.53;;
43933;SDS011;59081;42.706;23.306;2022-09-12T15:38:50;5.30;;;4.80;;
43933;SDS011;59081;42.706;23.306;2022-09-12T15:41:25;5.78;;;4.47;;
43933;SDS011;59081;42.706;23.306;2022-09-12T15:43:55;5.07;;;4.50;;
43933;SDS011;59081;42.706;23.306;2022-09-12T15:46:21;5.65;;;5.13;;
43933;SDS011;59081;42.706;23.306;2022-09-12T15:48:47;6.03;;;5.20;;
43933;SDS011;59081;42.706;23.306;2022-09-12T15:51:13;5.72;;;4.45;;
43933;SDS011;59081;42.706;23.306;2022-09-12T15:53:40;6.90;;;4.65;;
43933;SDS011;59081;42.706;23.306;2022-09-12T15:56:06;5.70;;;4.95;;
43933;SDS011;59081;42.706;23.306;2022-09-12T15:58:32;4.82;;;4.38;;
43933;SDS011;59081;42.706;23.306;2022-09-12T16:00:57;5.88;;;4.53;;
43933;SDS011;59081;42.706;23.306;2022-09-12T16:03:26;5.63;;;5.03;;
43933;SDS011;59081;42.706;23.306;2022-09-12T16:06:00;5.28;;;4.78;;
43933;SDS011;59081;42.706;23.306;2022-09-12T16:08:27;6.88;;;5.85;;
43933;SDS011;59081;42.706;23.306;2022-09-12T16:10:56;11.40;;;6.55;;
43933;SDS011;59081;42.706;23.306;2022-09-12T16:13:33;8.15;;;6.10;;
43933;SDS011;59081;42.706;23.306;2022-09-12T16:15:59;7.10;;;5.35;;
43933;SDS011;59081;42.706;23.306;2022-09-12T16:18:25;8.32;;;4.95;;
43933;SDS011;59081;42.706;23.306;2022-09-12T16:20:52;5.72;;;5.07;;
43933;SDS011;59081;42.706;23.306;2022-09-12T16:23:18;8.90;;;5.07;;
43933;SDS011;59081;42.706;23.306;2022-09-12T16:25:44;6.35;;;4.70;;
43933;SDS011;59081;42.706;23.306;2022-09-12T16:28:10;5.45;;;4.75;;
43933;SDS011;59081;42.706;23.306;2022-09-12T16:30:35;5.70;;;5.00;;
43933;SDS011;59081;42.706;23.306;2022-09-12T16:33:01;5.80;;;5.10;;
43933;SDS011;59081;42.706;23.306;2022-09-12T16:35:27;6.25;;;5.13;;
43933;SDS011;59081;42.706;23.306;2022-09-12T16:37:52;5.13;;;4.35;;
43933;SDS011;59081;42.706;23.306;2022-09-12T16:40:18;5.43;;;4.70;;
43933;SDS011;59081;42.706;23.306;2022-09-12T16:42:43;10.82;;;6.22;;
43933;SDS011;59081;42.706;23.306;2022-09-12T16:45:10;6.47;;;5.20;;
43933;SDS011;59081;42.706;23.306;2022-09-12T16:47:36;6.82;;;4.22;;
43933;SDS011;59081;42.706;23.306;2022-09-12T16:50:01;7.85;;;5.18;;
43933;SDS011;59081;42.706;23.306;2022-09-12T16:52:27;7.78;;;5.10;;
43933;SDS011;59081;42.706;23.306;2022-09-12T16:54:52;5.07;;;4.57;;
43933;SDS011;59081;42.706;23.306;2022-09-12T16:57:18;4.63;;;4.07;;
43933;SDS011;59081;42.706;23.306;2022-09-12T16:59:43;7.25;;;4.47;;
43933;SDS011;59081;42.706;23.306;2022-09-12T17:02:10;6.63;;;4.82;;
43933;SDS011;59081;42.706;23.306;2022-09-12T17:04:37;6.28;;;4.68;;
43933;SDS011;59081;42.706;23.306;2022-09-12T17:07:02;9.98;;;5.00;;
43933;SDS011;59081;42.706;23.306;2022-09-12T17:09:28;8.55;;;7.65;;
43933;SDS011;59081;42.706;23.306;2022-09-12T17:11:53;6.50;;;4.90;;
43933;SDS011;59081;42.706;23.306;2022-09-12T17:14:20;6.60;;;4.85;;
43933;SDS011;59081;42.706;23.306;2022-09-12T17:16:46;5.85;;;5.07;;
43933;SDS011;59081;42.706;23.306;2022-09-12T17:19:13;6.97;;;4.05;;
43933;SDS011;59081;42.706;23.306;2022-09-12T17:21:40;5.43;;;4.93;;
43933;SDS011;59081;42.706;23.306;2022-09-12T17:24:05;5.18;;;4.68;;
43933;SDS011;59081;42.706;23.306;2022-09-12T17:26:31;7.10;;;5.82;;
43933;SDS011;59081;42.706;23.306;2022-09-12T17:28:56;6.35;;;5.30;;
43933;SDS011;59081;42.706;23.306;2022-09-12T17:31:22;5.70;;;5.20;;